createdAt,value
2023-01-31T00:03:14.589Z,97820.47
2023-01-31T00:08:16.519Z,97823.94
2023-01-31T00:13:18.346Z,97808.44
2023-01-31T00:18:20.139Z,97810.44
2023-01-31T00:23:22.020Z,97833.66
2023-01-31T00:28:23.801Z,97836.00
2023-01-31T00:33:25.583Z,97837.66
2023-01-31T00:38:27.459Z,97861.44
2023-01-31T00:43:29.540Z,97879.81
2023-01-31T00:48:31.778Z,97883.34
2023-01-31T00:53:34.898Z,97866.53
2023-01-31T00:58:37.601Z,97877.03
2023-01-31T01:03:40.955Z,97887.75
2023-01-31T01:08:43.764Z,97882.28
2023-01-31T01:13:46.029Z,97876.94
2023-01-31T01:18:49.371Z,97890.09
2023-01-31T01:23:52.255Z,97891.22
2023-01-31T01:28:55.694Z,97901.03
2023-01-31T01:34:12.018Z,97891.22
2023-01-31T01:39:13.904Z,97885.28
2023-01-31T01:44:54.474Z,97904.06
2023-01-31T01:50:03.024Z,97904.66
2023-01-31T01:55:14.857Z,97903.69
2023-01-31T02:00:22.716Z,97913.16
2023-01-31T02:05:40.621Z,97926.78
2023-01-31T02:10:49.016Z,97932.28
2023-01-31T02:15:51.078Z,97946.84
2023-01-31T02:21:35.976Z,97957.22
2023-01-31T02:27:05.226Z,97970.75
2023-01-31T02:32:25.457Z,97966.78
2023-01-31T02:37:50.609Z,97963.16
2023-01-31T02:43:34.247Z,97959.44
2023-01-31T02:48:46.022Z,97970.50
2023-01-31T02:54:00.156Z,97987.03
2023-01-31T02:59:22.000Z,97993.66
2023-01-31T03:04:30.099Z,98006.69
2023-01-31T03:09:37.927Z,98013.97
2023-01-31T03:15:20.170Z,98013.84
2023-01-31T03:20:28.169Z,98030.16
2023-01-31T03:25:34.828Z,98046.63
2023-01-31T03:30:48.831Z,98042.88
2023-01-31T03:35:58.248Z,98045.81
2023-01-31T03:41:16.123Z,98060.03
2023-01-31T03:46:28.120Z,98067.28
2023-01-31T03:51:33.042Z,98071.25
2023-01-31T03:57:00.145Z,98073.81
2023-01-31T04:02:05.591Z,98083.72
2023-01-31T04:07:07.556Z,98081.66
2023-01-31T04:12:15.270Z,98081.72
2023-01-31T04:17:17.180Z,98062.97
2023-01-31T04:22:18.994Z,98066.34
2023-01-31T04:27:20.759Z,98059.59
2023-01-31T04:32:22.556Z,98071.59
2023-01-31T04:37:24.374Z,98072.31
2023-01-31T04:42:26.149Z,98063.78
2023-01-31T04:47:27.956Z,98064.97
2023-01-31T04:52:29.749Z,98061.69
2023-01-31T04:57:31.749Z,98057.81
2023-01-31T05:02:33.832Z,98069.03
2023-01-31T05:07:35.826Z,98072.53
2023-01-31T05:12:37.985Z,98065.88
2023-01-31T05:17:39.818Z,98070.84
2023-01-31T05:22:41.594Z,98089.75
2023-01-31T05:27:44.970Z,98094.75
2023-01-31T05:32:49.169Z,98105.00
2023-01-31T05:37:53.750Z,98103.38
2023-01-31T05:42:58.208Z,98111.53
2023-01-31T05:48:00.214Z,98104.38
2023-01-31T05:53:05.274Z,98089.72
2023-01-31T05:58:07.206Z,98106.41
2023-01-31T06:03:09.634Z,98099.28
2023-01-31T06:08:11.455Z,98100.66
2023-01-31T06:13:13.268Z,98101.84
2023-01-31T06:18:15.113Z,98108.63
2023-01-31T06:23:17.000Z,98109.44
2023-01-31T06:28:19.445Z,98121.69
2023-01-31T06:33:22.731Z,98116.22
2023-01-31T06:38:27.320Z,98123.56
2023-01-31T06:43:29.149Z,98125.03
2023-01-31T06:48:31.654Z,98124.22
2023-01-31T06:53:33.540Z,98128.22
2023-01-31T06:58:35.643Z,98131.72
2023-01-31T07:03:38.378Z,98131.53
2023-01-31T07:08:40.269Z,98134.56
2023-01-31T07:13:42.114Z,98126.66
2023-01-31T07:18:43.941Z,98146.28
2023-01-31T07:23:46.438Z,98143.72
2023-01-31T07:28:48.237Z,98139.44
2023-01-31T07:33:50.134Z,98133.22
2023-01-31T07:38:55.749Z,98128.00
2023-01-31T07:43:58.830Z,98133.94
2023-01-31T07:49:01.096Z,98144.81
2023-01-31T07:54:02.962Z,98146.66
2023-01-31T07:59:04.783Z,98140.72
2023-01-31T08:04:20.579Z,98140.72
2023-01-31T08:09:24.858Z,98145.38
2023-01-31T08:14:28.342Z,98141.75
2023-01-31T08:19:30.593Z,98136.81
2023-01-31T08:24:33.467Z,98139.19
2023-01-31T08:29:35.326Z,98156.19
2023-01-31T08:34:37.150Z,98156.59
2023-01-31T08:39:39.061Z,98142.56
2023-01-31T08:44:40.828Z,98146.19
2023-01-31T08:49:42.640Z,98149.00
2023-01-31T08:54:44.461Z,98155.53
2023-01-31T08:59:46.407Z,98148.03
2023-01-31T09:04:49.634Z,98154.28
2023-01-31T09:09:51.512Z,98137.69
2023-01-31T09:14:54.005Z,98142.47
2023-01-31T09:19:56.412Z,98129.44
2023-01-31T09:24:58.281Z,98121.38
2023-01-31T09:30:00.247Z,98124.78
2023-01-31T09:35:02.037Z,98120.34
2023-01-31T09:40:06.278Z,98104.69
2023-01-31T09:45:32.095Z,98103.38
2023-01-31T09:50:46.578Z,98099.13
2023-01-31T09:55:57.678Z,98098.91
2023-01-31T10:01:18.504Z,98096.00
2023-01-31T10:06:24.713Z,98086.06
2023-01-31T10:11:51.882Z,98085.75
2023-01-31T10:16:56.584Z,98068.44
2023-01-31T10:22:04.268Z,98059.69
2023-01-31T10:27:21.389Z,98064.38
2023-01-31T10:32:33.719Z,98056.72
2023-01-31T10:37:44.541Z,98038.78
2023-01-31T10:42:52.802Z,98043.03
2023-01-31T10:48:16.271Z,98037.91
2023-01-31T10:53:55.477Z,98035.03
2023-01-31T10:59:00.183Z,98020.34
2023-01-31T11:04:26.440Z,98017.41
2023-01-31T11:09:37.075Z,98010.50
2023-01-31T11:14:39.334Z,98006.28
2023-01-31T11:19:50.592Z,97985.31
2023-01-31T11:24:53.878Z,97974.16
2023-01-31T11:30:00.129Z,97961.56
2023-01-31T11:35:06.886Z,97948.72
2023-01-31T11:40:29.800Z,97962.47
2023-01-31T11:45:36.823Z,97953.03
2023-01-31T11:50:46.032Z,97915.81
2023-01-31T11:55:50.191Z,97920.91
2023-01-31T12:01:20.840Z,97917.34
2023-01-31T12:06:27.376Z,97929.19
2023-01-31T12:11:32.505Z,97932.47
2023-01-31T12:16:37.431Z,97910.94
2023-01-31T12:22:29.178Z,97898.06
2023-01-31T12:27:46.149Z,97897.19
2023-01-31T12:33:08.609Z,97864.84
2023-01-31T12:38:36.999Z,97854.41
2023-01-31T12:44:06.253Z,97831.06
2023-01-31T12:49:33.896Z,97839.88
2023-01-31T12:54:41.756Z,97834.94
2023-01-31T12:59:56.480Z,97808.97
2023-01-31T13:05:07.571Z,97791.63
2023-01-31T13:10:39.807Z,97765.94
2023-01-31T13:15:49.719Z,97769.47
2023-01-31T13:20:59.479Z,97749.16
2023-01-31T13:26:13.333Z,97753.16
2023-01-31T13:31:22.174Z,97744.41
2023-01-31T13:36:37.327Z,97717.56
2023-01-31T13:41:40.078Z,97720.94
2023-01-31T13:47:14.677Z,97714.06
2023-01-31T13:52:23.091Z,97709.28
2023-01-31T13:57:35.562Z,97696.59
2023-01-31T14:02:37.443Z,97700.66
2023-01-31T14:07:39.290Z,97711.50
2023-01-31T14:12:41.093Z,97715.56
2023-01-31T14:17:43.069Z,97715.25
2023-01-31T14:23:27.802Z,97717.56
2023-01-31T14:28:30.359Z,97716.19
2023-01-31T14:33:32.307Z,97719.56
2023-01-31T14:38:55.737Z,97721.69
2023-01-31T14:44:16.883Z,97713.69
2023-01-31T14:49:45.135Z,97713.63
2023-01-31T14:55:05.811Z,97731.59
2023-01-31T15:00:14.060Z,97719.28
2023-01-31T15:05:39.456Z,97721.16
2023-01-31T15:11:02.655Z,97716.72
2023-01-31T15:16:22.776Z,97727.78
2023-01-31T15:21:29.817Z,97717.06
2023-01-31T15:26:35.561Z,97722.44
2023-01-31T15:31:44.432Z,97715.00
2023-01-31T15:36:59.817Z,97712.00
2023-01-31T15:42:22.420Z,97714.22
2023-01-31T15:47:24.262Z,97714.34
2023-01-31T15:52:27.663Z,97716.31
2023-01-31T15:57:41.585Z,97708.91
2023-01-31T16:02:43.405Z,97702.03
2023-01-31T16:07:47.684Z,97705.84
2023-01-31T16:12:53.212Z,97711.41
2023-01-31T16:17:58.468Z,97719.56
2023-01-31T16:23:00.390Z,97708.94
2023-01-31T16:28:11.316Z,97706.81
2023-01-31T16:33:18.428Z,97716.72
2023-01-31T16:38:29.475Z,97718.91
2023-01-31T16:43:33.931Z,97719.13
2023-01-31T16:48:38.663Z,97717.44
2023-01-31T16:53:41.644Z,97705.34
2023-01-31T16:59:03.671Z,97709.06
2023-01-31T17:04:11.521Z,97716.09
2023-01-31T17:09:19.065Z,97728.47
2023-01-31T17:14:20.930Z,97717.78
2023-01-31T17:19:23.472Z,97742.16
2023-01-31T17:24:25.414Z,97737.72
2023-01-31T17:29:27.454Z,97732.44
2023-01-31T17:34:29.297Z,97730.81
2023-01-31T17:39:31.094Z,97740.13
2023-01-31T17:44:32.928Z,97728.69
2023-01-31T17:49:35.114Z,97741.41
2023-01-31T17:54:37.099Z,97723.88
2023-01-31T17:59:38.885Z,97723.88
2023-01-31T18:04:40.678Z,97721.16
2023-01-31T18:09:42.545Z,97716.34
2023-01-31T18:14:44.376Z,97730.25
2023-01-31T18:19:46.393Z,97723.38
2023-01-31T18:24:48.216Z,97725.53
2023-01-31T18:29:50.025Z,97708.84
2023-01-31T18:34:51.923Z,97711.13
2023-01-31T18:39:53.959Z,97687.72
2023-01-31T18:44:55.871Z,97704.75
2023-01-31T18:49:57.689Z,97691.78
2023-01-31T18:54:59.671Z,97671.53
2023-01-31T19:00:01.503Z,97671.91
2023-01-31T19:05:03.420Z,97661.50
2023-01-31T19:10:05.594Z,97679.00
2023-01-31T19:15:09.975Z,97678.09
2023-01-31T19:20:12.338Z,97665.41
2023-01-31T19:25:14.750Z,97649.06
2023-01-31T19:30:16.672Z,97656.34
2023-01-31T19:35:18.576Z,97654.25
2023-01-31T19:40:20.406Z,97645.59
2023-01-31T19:45:22.806Z,97655.28
2023-01-31T19:50:24.833Z,97669.59
2023-01-31T19:55:26.697Z,97662.81
2023-01-31T20:00:28.550Z,97693.63
2023-01-31T20:05:32.684Z,97671.31
2023-01-31T20:10:35.870Z,97665.94
2023-01-31T20:15:37.737Z,97659.44
2023-01-31T20:20:39.584Z,97670.94
2023-01-31T20:25:41.381Z,97655.13
2023-01-31T20:30:43.571Z,97660.03
2023-01-31T20:35:46.437Z,97659.63
2023-01-31T20:40:52.831Z,97638.69
2023-01-31T20:46:07.378Z,97649.38
2023-01-31T20:51:09.332Z,97645.22
2023-01-31T20:56:11.611Z,97649.00
2023-01-31T21:01:13.524Z,97674.56
2023-01-31T21:06:15.367Z,97666.72
2023-01-31T21:11:17.237Z,97676.03
2023-01-31T21:16:19.231Z,97690.72
2023-01-31T21:21:24.397Z,97689.91
2023-01-31T21:26:27.212Z,97687.88
2023-01-31T21:31:29.769Z,97695.88
2023-01-31T21:36:34.065Z,97693.19
2023-01-31T21:41:54.420Z,97686.19
2023-01-31T21:46:59.583Z,97689.72
2023-01-31T21:52:02.051Z,97694.34
2023-01-31T21:57:04.145Z,97691.41
2023-01-31T22:02:06.406Z,97705.34
2023-01-31T22:07:08.738Z,97702.91
2023-01-31T22:12:10.551Z,97692.50
2023-01-31T22:17:12.387Z,97685.28
2023-01-31T22:22:14.163Z,97680.69
2023-01-31T22:27:16.020Z,97686.63
2023-01-31T22:32:17.850Z,97694.38
2023-01-31T22:37:19.614Z,97688.69
2023-01-31T22:42:21.380Z,97683.44
2023-01-31T22:47:24.229Z,97692.75
2023-01-31T22:52:26.056Z,97690.75
2023-01-31T22:57:27.918Z,97666.78
2023-01-31T23:02:29.709Z,97678.41
2023-01-31T23:07:31.633Z,97674.91
2023-01-31T23:12:33.457Z,97665.94
2023-01-31T23:17:39.506Z,97664.31
2023-01-31T23:22:42.310Z,97674.63
2023-01-31T23:27:44.135Z,97676.78
2023-01-31T23:32:46.008Z,97677.06
2023-01-31T23:37:47.778Z,97682.34
2023-01-31T23:42:49.671Z,97683.03
2023-01-31T23:47:51.489Z,97684.66
2023-01-31T23:52:53.444Z,97691.66
2023-01-31T23:57:55.407Z,97688.84
